sensor_id;sensor_type;location;lat;lon;timestamp;P1;durP1;ratioP1;P2;durP2;ratioP2
85839;SDS011;76322;54.686;9.332;2024-03-17T17:42:23;2.42;;;1.65;;
85839;SDS011;76322;54.686;9.332;2024-03-17T17:43:23;2.70;;;1.52;;
85839;SDS011;76322;54.686;9.332;2024-03-17T17:44:24;4.60;;;1.77;;
85839;SDS011;76322;54.686;9.332;2024-03-17T17:45:26;3.10;;;1.70;;
85839;SDS011;76322;54.686;9.332;2024-03-17T17:46:26;3.28;;;1.30;;
85839;SDS011;76322;54.686;9.332;2024-03-17T17:47:28;2.85;;;1.55;;
85839;SDS011;76322;54.686;9.332;2024-03-17T17:48:28;3.83;;;1.60;;
85839;SDS011;76322;54.686;9.332;2024-03-17T17:49:29;2.45;;;1.63;;
85839;SDS011;76322;54.686;9.332;2024-03-17T17:50:29;2.53;;;1.40;;
85839;SDS011;76322;54.686;9.332;2024-03-17T17:51:30;3.47;;;1.50;;
85839;SDS011;76322;54.686;9.332;2024-03-17T17:52:32;2.90;;;1.40;;
85839;SDS011;76322;54.686;9.332;2024-03-17T17:53:34;1.85;;;1.40;;
85839;SDS011;76322;54.686;9.332;2024-03-17T17:54:35;2.75;;;1.60;;
85839;SDS011;76322;54.686;9.332;2024-03-17T17:55:35;3.30;;;1.33;;
85839;SDS011;76322;54.686;9.332;2024-03-17T17:56:36;1.52;;;1.20;;
85839;SDS011;76322;54.686;9.332;2024-03-17T17:57:36;2.75;;;1.38;;
85839;SDS011;76322;54.686;9.332;2024-03-17T17:58:37;2.65;;;1.20;;
85839;SDS011;76322;54.686;9.332;2024-03-17T17:59:39;2.45;;;1.33;;
85839;SDS011;76322;54.686;9.332;2024-03-17T18:00:39;2.53;;;1.50;;
85839;SDS011;76322;54.686;9.332;2024-03-17T18:01:40;2.10;;;1.30;;
85839;SDS011;76322;54.686;9.332;2024-03-17T18:02:40;2.78;;;1.45;;
85839;SDS011;76322;54.686;9.332;2024-03-17T18:03:41;3.00;;;1.50;;
85839;SDS011;76322;54.686;9.332;2024-03-17T18:04:45;3.72;;;1.63;;
85839;SDS011;76322;54.686;9.332;2024-03-17T18:05:46;3.00;;;1.55;;
85839;SDS011;76322;54.686;9.332;2024-03-17T18:06:46;3.80;;;1.40;;
85839;SDS011;76322;54.686;9.332;2024-03-17T18:07:47;2.63;;;1.52;;
85839;SDS011;76322;54.686;9.332;2024-03-17T18:08:48;2.88;;;1.42;;
85839;SDS011;76322;54.686;9.332;2024-03-17T18:09:48;3.22;;;1.67;;
85839;SDS011;76322;54.686;9.332;2024-03-17T18:10:49;4.30;;;1.45;;
85839;SDS011;76322;54.686;9.332;2024-03-17T18:12:00;3.85;;;1.40;;
85839;SDS011;76322;54.686;9.332;2024-03-17T18:13:01;2.20;;;1.27;;
85839;SDS011;76322;54.686;9.332;2024-03-17T18:14:02;3.45;;;1.55;;
85839;SDS011;76322;54.686;9.332;2024-03-17T18:15:03;2.33;;;1.70;;
85839;SDS011;76322;54.686;9.332;2024-03-17T18:16:05;2.25;;;1.30;;
85839;SDS011;76322;54.686;9.332;2024-03-17T18:17:08;2.53;;;1.70;;
85839;SDS011;76322;54.686;9.332;2024-03-17T18:18:11;2.28;;;1.40;;
85839;SDS011;76322;54.686;9.332;2024-03-17T18:19:12;3.47;;;1.40;;
85839;SDS011;76322;54.686;9.332;2024-03-17T18:20:12;6.97;;;1.55;;
85839;SDS011;76322;54.686;9.332;2024-03-17T18:21:13;1.95;;;1.30;;
85839;SDS011;76322;54.686;9.332;2024-03-17T18:22:14;3.53;;;1.27;;
85839;SDS011;76322;54.686;9.332;2024-03-17T18:23:14;3.45;;;1.50;;
85839;SDS011;76322;54.686;9.332;2024-03-17T18:24:15;2.13;;;1.55;;
85839;SDS011;76322;54.686;9.332;2024-03-17T18:25:15;3.13;;;1.40;;
85839;SDS011;76322;54.686;9.332;2024-03-17T18:26:16;3.38;;;1.70;;
85839;SDS011;76322;54.686;9.332;2024-03-17T18:27:17;4.88;;;1.65;;
85839;SDS011;76322;54.686;9.332;2024-03-17T18:28:17;1.60;;;1.38;;
85839;SDS011;76322;54.686;9.332;2024-03-17T18:29:19;4.20;;;1.63;;
85839;SDS011;76322;54.686;9.332;2024-03-17T18:30:19;2.22;;;1.40;;
85839;SDS011;76322;54.686;9.332;2024-03-17T18:31:20;3.13;;;1.45;;
85839;SDS011;76322;54.686;9.332;2024-03-17T18:32:20;3.60;;;1.35;;
85839;SDS011;76322;54.686;9.332;2024-03-17T18:33:20;2.22;;;1.50;;
85839;SDS011;76322;54.686;9.332;2024-03-17T18:34:21;2.70;;;1.45;;
85839;SDS011;76322;54.686;9.332;2024-03-17T18:35:22;3.20;;;1.52;;
85839;SDS011;76322;54.686;9.332;2024-03-17T18:36:22;1.55;;;1.17;;
85839;SDS011;76322;54.686;9.332;2024-03-17T18:37:23;5.05;;;1.60;;
85839;SDS011;76322;54.686;9.332;2024-03-17T18:39:26;1.80;;;1.40;;
85839;SDS011;76322;54.686;9.332;2024-03-17T18:40:27;2.65;;;1.13;;
85839;SDS011;76322;54.686;9.332;2024-03-17T18:41:28;3.13;;;1.42;;
85839;SDS011;76322;54.686;9.332;2024-03-17T18:42:32;1.95;;;1.27;;
85839;SDS011;76322;54.686;9.332;2024-03-17T18:43:36;4.50;;;2.75;;
85839;SDS011;76322;54.686;9.332;2024-03-17T18:44:46;1.52;;;1.23;;
85839;SDS011;76322;54.686;9.332;2024-03-17T18:45:48;2.05;;;1.33;;
85839;SDS011;76322;54.686;9.332;2024-03-17T18:46:48;3.50;;;1.40;;
85839;SDS011;76322;54.686;9.332;2024-03-17T18:47:49;3.05;;;1.55;;
85839;SDS011;76322;54.686;9.332;2024-03-17T18:49:53;2.28;;;1.35;;
85839;SDS011;76322;54.686;9.332;2024-03-17T18:50:57;1.70;;;1.30;;
85839;SDS011;76322;54.686;9.332;2024-03-17T18:51:58;4.22;;;1.48;;
85839;SDS011;76322;54.686;9.332;2024-03-17T18:53:00;2.40;;;1.60;;
85839;SDS011;76322;54.686;9.332;2024-03-17T18:54:00;2.08;;;1.33;;
85839;SDS011;76322;54.686;9.332;2024-03-17T18:55:01;2.85;;;1.90;;
85839;SDS011;76322;54.686;9.332;2024-03-17T18:56:02;2.45;;;1.50;;
85839;SDS011;76322;54.686;9.332;2024-03-17T18:57:06;2.40;;;1.60;;
85839;SDS011;76322;54.686;9.332;2024-03-17T18:58:07;5.15;;;1.70;;
85839;SDS011;76322;54.686;9.332;2024-03-17T18:59:08;3.50;;;1.75;;
85839;SDS011;76322;54.686;9.332;2024-03-17T19:00:09;3.28;;;1.70;;
85839;SDS011;76322;54.686;9.332;2024-03-17T19:01:14;2.47;;;1.45;;
85839;SDS011;76322;54.686;9.332;2024-03-17T19:02:14;2.42;;;1.30;;
85839;SDS011;76322;54.686;9.332;2024-03-17T19:03:15;2.38;;;1.60;;
85839;SDS011;76322;54.686;9.332;2024-03-17T19:04:15;2.22;;;1.40;;
85839;SDS011;76322;54.686;9.332;2024-03-17T19:05:16;2.20;;;1.40;;
85839;SDS011;76322;54.686;9.332;2024-03-17T19:06:17;4.47;;;1.60;;
85839;SDS011;76322;54.686;9.332;2024-03-17T19:07:18;3.67;;;1.60;;
85839;SDS011;76322;54.686;9.332;2024-03-17T19:08:23;3.92;;;1.55;;
85839;SDS011;76322;54.686;9.332;2024-03-17T19:09:25;3.40;;;1.50;;
85839;SDS011;76322;54.686;9.332;2024-03-17T19:10:26;3.28;;;1.55;;
85839;SDS011;76322;54.686;9.332;2024-03-17T19:11:26;3.38;;;1.85;;
85839;SDS011;76322;54.686;9.332;2024-03-17T19:12:27;3.05;;;1.60;;
85839;SDS011;76322;54.686;9.332;2024-03-17T19:13:27;3.05;;;1.75;;
85839;SDS011;76322;54.686;9.332;2024-03-17T19:14:28;2.17;;;1.60;;
85839;SDS011;76322;54.686;9.332;2024-03-17T19:15:29;2.15;;;1.50;;
85839;SDS011;76322;54.686;9.332;2024-03-17T19:16:29;2.70;;;1.50;;
85839;SDS011;76322;54.686;9.332;2024-03-17T19:17:33;2.45;;;1.70;;
85839;SDS011;76322;54.686;9.332;2024-03-17T19:18:36;2.30;;;1.58;;
85839;SDS011;76322;54.686;9.332;2024-03-17T19:19:37;2.17;;;1.40;;
85839;SDS011;76322;54.686;9.332;2024-03-17T19:20:38;3.40;;;1.55;;
85839;SDS011;76322;54.686;9.332;2024-03-17T19:21:38;4.30;;;1.88;;
85839;SDS011;76322;54.686;9.332;2024-03-17T19:22:45;2.35;;;1.67;;
85839;SDS011;76322;54.686;9.332;2024-03-17T19:23:46;3.30;;;1.80;;
85839;SDS011;76322;54.686;9.332;2024-03-17T19:24:50;2.85;;;1.60;;
85839;SDS011;76322;54.686;9.332;2024-03-17T19:26:03;4.50;;;1.95;;
85839;SDS011;76322;54.686;9.332;2024-03-17T19:27:07;2.47;;;1.70;;
85839;SDS011;76322;54.686;9.332;2024-03-17T19:28:07;2.20;;;1.75;;
85839;SDS011;76322;54.686;9.332;2024-03-17T19:29:10;3.03;;;1.70;;
85839;SDS011;76322;54.686;9.332;2024-03-17T19:30:11;2.38;;;1.67;;
85839;SDS011;76322;54.686;9.332;2024-03-17T19:31:12;3.28;;;1.80;;
85839;SDS011;76322;54.686;9.332;2024-03-17T19:32:14;3.58;;;1.70;;
85839;SDS011;76322;54.686;9.332;2024-03-17T19:33:14;4.13;;;1.52;;
85839;SDS011;76322;54.686;9.332;2024-03-17T19:34:15;1.90;;;1.40;;
85839;SDS011;76322;54.686;9.332;2024-03-17T19:35:16;3.55;;;1.50;;
85839;SDS011;76322;54.686;9.332;2024-03-17T19:36:18;3.28;;;1.70;;
85839;SDS011;76322;54.686;9.332;2024-03-17T19:37:19;3.15;;;1.75;;
85839;SDS011;76322;54.686;9.332;2024-03-17T19:38:22;6.65;;;1.65;;
85839;SDS011;76322;54.686;9.332;2024-03-17T19:39:24;2.83;;;1.80;;
85839;SDS011;76322;54.686;9.332;2024-03-17T19:40:24;4.53;;;1.73;;
85839;SDS011;76322;54.686;9.332;2024-03-17T19:41:26;3.55;;;1.60;;
85839;SDS011;76322;54.686;9.332;2024-03-17T19:42:26;2.30;;;1.67;;
85839;SDS011;76322;54.686;9.332;2024-03-17T19:43:28;2.42;;;1.48;;
85839;SDS011;76322;54.686;9.332;2024-03-17T19:44:29;2.85;;;1.60;;
85839;SDS011;76322;54.686;9.332;2024-03-17T19:45:30;3.20;;;1.70;;
85839;SDS011;76322;54.686;9.332;2024-03-17T19:46:31;4.47;;;1.98;;
85839;SDS011;76322;54.686;9.332;2024-03-17T19:47:31;3.30;;;1.75;;
85839;SDS011;76322;54.686;9.332;2024-03-17T19:48:32;2.88;;;1.70;;
85839;SDS011;76322;54.686;9.332;2024-03-17T19:49:34;3.88;;;1.95;;
85839;SDS011;76322;54.686;9.332;2024-03-17T19:50:34;3.40;;;1.80;;
85839;SDS011;76322;54.686;9.332;2024-03-17T19:51:35;2.47;;;1.55;;
85839;SDS011;76322;54.686;9.332;2024-03-17T19:52:35;3.17;;;1.70;;
85839;SDS011;76322;54.686;9.332;2024-03-17T19:53:40;3.00;;;1.55;;
85839;SDS011;76322;54.686;9.332;2024-03-17T19:54:42;4.07;;;1.77;;
85839;SDS011;76322;54.686;9.332;2024-03-17T19:55:45;3.20;;;1.83;;
85839;SDS011;76322;54.686;9.332;2024-03-17T19:56:47;3.05;;;1.80;;
85839;SDS011;76322;54.686;9.332;2024-03-17T19:57:48;2.47;;;1.65;;
85839;SDS011;76322;54.686;9.332;2024-03-17T19:58:49;2.58;;;1.50;;
85839;SDS011;76322;54.686;9.332;2024-03-17T19:59:52;2.75;;;1.70;;
85839;SDS011;76322;54.686;9.332;2024-03-17T20:00:53;3.50;;;1.70;;
85839;SDS011;76322;54.686;9.332;2024-03-17T20:01:53;3.25;;;2.00;;
85839;SDS011;76322;54.686;9.332;2024-03-17T20:02:54;4.22;;;1.98;;
85839;SDS011;76322;54.686;9.332;2024-03-17T20:03:56;5.80;;;3.65;;
85839;SDS011;76322;54.686;9.332;2024-03-17T20:04:56;2.83;;;1.70;;
85839;SDS011;76322;54.686;9.332;2024-03-17T20:05:58;3.13;;;1.77;;
85839;SDS011;76322;54.686;9.332;2024-03-17T20:06:59;2.88;;;1.88;;
85839;SDS011;76322;54.686;9.332;2024-03-17T20:07:59;3.00;;;1.75;;
85839;SDS011;76322;54.686;9.332;2024-03-17T20:09:01;3.13;;;1.88;;
85839;SDS011;76322;54.686;9.332;2024-03-17T20:10:02;3.83;;;1.75;;
85839;SDS011;76322;54.686;9.332;2024-03-17T20:12:05;4.25;;;1.70;;
85839;SDS011;76322;54.686;9.332;2024-03-17T20:13:06;4.65;;;2.00;;
85839;SDS011;76322;54.686;9.332;2024-03-17T20:14:07;6.68;;;1.73;;
85839;SDS011;76322;54.686;9.332;2024-03-17T20:15:09;3.90;;;1.90;;
85839;SDS011;76322;54.686;9.332;2024-03-17T20:16:14;2.53;;;1.80;;
85839;SDS011;76322;54.686;9.332;2024-03-17T20:17:19;3.10;;;1.75;;
85839;SDS011;76322;54.686;9.332;2024-03-17T20:18:20;3.28;;;1.77;;
85839;SDS011;76322;54.686;9.332;2024-03-17T20:19:20;5.45;;;1.80;;
85839;SDS011;76322;54.686;9.332;2024-03-17T20:20:21;4.45;;;2.22;;
85839;SDS011;76322;54.686;9.332;2024-03-17T20:21:21;4.32;;;2.20;;
85839;SDS011;76322;54.686;9.332;2024-03-17T20:22:22;3.65;;;1.63;;
85839;SDS011;76322;54.686;9.332;2024-03-17T20:23:24;4.82;;;1.80;;
85839;SDS011;76322;54.686;9.332;2024-03-17T20:24:25;4.57;;;1.92;;
85839;SDS011;76322;54.686;9.332;2024-03-17T20:25:25;4.80;;;1.98;;
85839;SDS011;76322;54.686;9.332;2024-03-17T20:26:26;3.88;;;2.30;;
85839;SDS011;76322;54.686;9.332;2024-03-17T20:27:29;3.15;;;2.05;;
85839;SDS011;76322;54.686;9.332;2024-03-17T20:28:33;3.72;;;1.70;;
85839;SDS011;76322;54.686;9.332;2024-03-17T20:29:35;3.38;;;2.00;;
85839;SDS011;76322;54.686;9.332;2024-03-17T20:30:36;2.70;;;1.88;;
85839;SDS011;76322;54.686;9.332;2024-03-17T20:31:36;6.47;;;2.65;;
85839;SDS011;76322;54.686;9.332;2024-03-17T20:32:41;4.32;;;2.28;;
85839;SDS011;76322;54.686;9.332;2024-03-17T20:33:41;4.13;;;2.10;;
85839;SDS011;76322;54.686;9.332;2024-03-17T20:34:42;2.92;;;2.10;;
85839;SDS011;76322;54.686;9.332;2024-03-17T20:35:42;3.10;;;2.05;;
85839;SDS011;76322;54.686;9.332;2024-03-17T20:36:43;4.57;;;2.22;;
85839;SDS011;76322;54.686;9.332;2024-03-17T20:37:47;4.30;;;2.00;;
85839;SDS011;76322;54.686;9.332;2024-03-17T20:38:51;3.65;;;2.20;;
85839;SDS011;76322;54.686;9.332;2024-03-17T20:39:51;4.07;;;2.17;;
85839;SDS011;76322;54.686;9.332;2024-03-17T20:40:52;3.00;;;2.03;;
85839;SDS011;76322;54.686;9.332;2024-03-17T20:41:53;4.65;;;2.20;;
85839;SDS011;76322;54.686;9.332;2024-03-17T20:42:54;4.13;;;2.00;;
85839;SDS011;76322;54.686;9.332;2024-03-17T20:43:55;3.38;;;1.90;;
85839;SDS011;76322;54.686;9.332;2024-03-17T20:44:56;3.88;;;2.00;;
85839;SDS011;76322;54.686;9.332;2024-03-17T20:45:56;3.55;;;2.38;;
85839;SDS011;76322;54.686;9.332;2024-03-17T20:46:57;4.15;;;2.50;;
85839;SDS011;76322;54.686;9.332;2024-03-17T20:47:57;3.50;;;2.20;;
85839;SDS011;76322;54.686;9.332;2024-03-17T20:48:58;3.92;;;2.17;;
85839;SDS011;76322;54.686;9.332;2024-03-17T20:49:59;5.97;;;2.55;;
85839;SDS011;76322;54.686;9.332;2024-03-17T20:50:59;3.67;;;2.40;;
85839;SDS011;76322;54.686;9.332;2024-03-17T20:52:00;4.13;;;2.33;;
85839;SDS011;76322;54.686;9.332;2024-03-17T20:54:04;6.25;;;2.28;;
85839;SDS011;76322;54.686;9.332;2024-03-17T20:55:05;3.63;;;2.47;;
85839;SDS011;76322;54.686;9.332;2024-03-17T20:56:06;3.10;;;2.00;;
85839;SDS011;76322;54.686;9.332;2024-03-17T20:57:06;7.10;;;2.60;;
85839;SDS011;76322;54.686;9.332;2024-03-17T20:58:07;3.83;;;2.75;;
85839;SDS011;76322;54.686;9.332;2024-03-17T20:59:08;3.95;;;2.30;;
85839;SDS011;76322;54.686;9.332;2024-03-17T21:00:08;3.30;;;2.30;;
85839;SDS011;76322;54.686;9.332;2024-03-17T21:01:22;3.95;;;2.10;;
85839;SDS011;76322;54.686;9.332;2024-03-17T21:03:26;3.03;;;2.20;;
85839;SDS011;76322;54.686;9.332;2024-03-17T21:04:27;4.00;;;2.50;;
85839;SDS011;76322;54.686;9.332;2024-03-17T21:05:28;3.30;;;2.00;;
85839;SDS011;76322;54.686;9.332;2024-03-17T21:07:31;4.32;;;2.65;;
85839;SDS011;76322;54.686;9.332;2024-03-17T21:08:32;3.15;;;2.10;;
85839;SDS011;76322;54.686;9.332;2024-03-17T21:09:32;4.32;;;2.63;;
85839;SDS011;76322;54.686;9.332;2024-03-17T21:10:33;5.25;;;2.42;;
85839;SDS011;76322;54.686;9.332;2024-03-17T21:11:36;3.50;;;2.53;;
85839;SDS011;76322;54.686;9.332;2024-03-17T21:12:38;4.88;;;3.00;;
85839;SDS011;76322;54.686;9.332;2024-03-17T21:13:39;3.38;;;2.30;;
85839;SDS011;76322;54.686;9.332;2024-03-17T21:14:40;4.28;;;2.20;;
